sensor_id;sensor_type;location;lat;lon;timestamp;pressure;altitude;pressure_sealevel;temperature;humidity
73952;BME280;62304;47.662;18.324;2023-02-01T00:02:11;100412.06;;;3.89;82.61
73952;BME280;62304;47.662;18.324;2023-02-01T00:05:14;100412.06;;;3.89;82.50
73952;BME280;62304;47.662;18.324;2023-02-01T00:08:17;100402.41;;;3.92;82.77
73952;BME280;62304;47.662;18.324;2023-02-01T00:11:21;100400.78;;;3.82;82.57
73952;BME280;62304;47.662;18.324;2023-02-01T00:14:24;100409.00;;;3.82;83.01
73952;BME280;62304;47.662;18.324;2023-02-01T00:17:28;100413.84;;;3.85;82.56
73952;BME280;62304;47.662;18.324;2023-02-01T00:20:31;100409.66;;;3.96;81.93
73952;BME280;62304;47.662;18.324;2023-02-01T00:23:35;100413.19;;;4.05;81.16
73952;BME280;62304;47.662;18.324;2023-02-01T00:26:43;100404.44;;;4.12;80.44
73952;BME280;62304;47.662;18.324;2023-02-01T00:29:47;100397.31;;;4.19;79.94
73952;BME280;62304;47.662;18.324;2023-02-01T00:32:50;100401.03;;;4.23;79.12
73952;BME280;62304;47.662;18.324;2023-02-01T00:36:01;100404.41;;;4.29;79.23
73952;BME280;62304;47.662;18.324;2023-02-01T00:39:04;100408.28;;;4.28;79.26
73952;BME280;62304;47.662;18.324;2023-02-01T00:42:08;100418.47;;;4.27;79.01
73952;BME280;62304;47.662;18.324;2023-02-01T00:45:10;100408.12;;;4.24;78.96
73952;BME280;62304;47.662;18.324;2023-02-01T00:48:13;100413.00;;;4.27;78.47
73952;BME280;62304;47.662;18.324;2023-02-01T00:51:23;100403.13;;;4.26;78.14
73952;BME280;62304;47.662;18.324;2023-02-01T00:54:26;100412.03;;;4.23;78.88
73952;BME280;62304;47.662;18.324;2023-02-01T00:57:30;100386.66;;;4.18;79.10
73952;BME280;62304;47.662;18.324;2023-02-01T01:00:34;100401.22;;;4.10;79.31
73952;BME280;62304;47.662;18.324;2023-02-01T01:03:40;100393.16;;;4.05;79.16
73952;BME280;62304;47.662;18.324;2023-02-01T01:06:44;100374.09;;;4.08;79.04
73952;BME280;62304;47.662;18.324;2023-02-01T01:09:46;100383.63;;;4.11;78.69
73952;BME280;62304;47.662;18.324;2023-02-01T01:12:50;100372.66;;;4.11;78.62
73952;BME280;62304;47.662;18.324;2023-02-01T01:15:53;100364.44;;;4.02;78.90
73952;BME280;62304;47.662;18.324;2023-02-01T01:18:57;100360.44;;;3.91;79.06
73952;BME280;62304;47.662;18.324;2023-02-01T01:22:00;100351.22;;;3.87;79.08
73952;BME280;62304;47.662;18.324;2023-02-01T01:25:03;100351.59;;;3.77;79.37
73952;BME280;62304;47.662;18.324;2023-02-01T01:28:07;100360.16;;;3.67;79.80
73952;BME280;62304;47.662;18.324;2023-02-01T01:31:12;100364.97;;;3.53;79.99
73952;BME280;62304;47.662;18.324;2023-02-01T01:34:15;100366.59;;;3.46;80.24
73952;BME280;62304;47.662;18.324;2023-02-01T01:37:19;100353.22;;;3.53;80.17
73952;BME280;62304;47.662;18.324;2023-02-01T01:40:21;100361.44;;;3.61;79.77
73952;BME280;62304;47.662;18.324;2023-02-01T01:43:44;100361.91;;;3.72;79.55
73952;BME280;62304;47.662;18.324;2023-02-01T01:46:48;100376.25;;;3.86;79.11
73952;BME280;62304;47.662;18.324;2023-02-01T01:49:51;100368.31;;;4.01;78.78
73952;BME280;62304;47.662;18.324;2023-02-01T01:52:56;100371.69;;;4.07;78.52
73952;BME280;62304;47.662;18.324;2023-02-01T01:56:02;100370.41;;;4.13;78.39
73952;BME280;62304;47.662;18.324;2023-02-01T01:59:05;100383.59;;;4.19;78.32
73952;BME280;62304;47.662;18.324;2023-02-01T02:02:09;100376.34;;;4.23;78.12
73952;BME280;62304;47.662;18.324;2023-02-01T02:05:15;100369.84;;;4.28;78.00
73952;BME280;62304;47.662;18.324;2023-02-01T02:08:20;100357.91;;;4.32;77.66
73952;BME280;62304;47.662;18.324;2023-02-01T02:11:26;100354.94;;;4.37;77.38
73952;BME280;62304;47.662;18.324;2023-02-01T02:14:30;100359.34;;;4.38;77.44
73952;BME280;62304;47.662;18.324;2023-02-01T02:21:12;100369.19;;;4.39;77.47
73952;BME280;62304;47.662;18.324;2023-02-01T02:31:58;100364.34;;;4.28;78.00
73952;BME280;62304;47.662;18.324;2023-02-01T02:38:53;100358.87;;;4.28;77.95
73952;BME280;62304;47.662;18.324;2023-02-01T02:45:54;100354.69;;;4.22;78.18
73952;BME280;62304;47.662;18.324;2023-02-01T02:49:39;100365.06;;;4.16;78.47
73952;BME280;62304;47.662;18.324;2023-02-01T02:52:59;100355.03;;;4.12;78.68
73952;BME280;62304;47.662;18.324;2023-02-01T02:56:23;100367.00;;;4.07;78.77
73952;BME280;62304;47.662;18.324;2023-02-01T02:59:47;100364.75;;;4.01;79.00
73952;BME280;62304;47.662;18.324;2023-02-01T03:03:09;100366.37;;;3.93;79.21
73952;BME280;62304;47.662;18.324;2023-02-01T03:06:32;100365.47;;;3.81;79.55
73952;BME280;62304;47.662;18.324;2023-02-01T03:09:37;100369.31;;;3.71;80.14
73952;BME280;62304;47.662;18.324;2023-02-01T03:12:43;100370.62;;;3.65;80.11
73952;BME280;62304;47.662;18.324;2023-02-01T03:16:26;100370.78;;;3.52;80.60
73952;BME280;62304;47.662;18.324;2023-02-01T03:19:39;100365.81;;;3.45;80.76
73952;BME280;62304;47.662;18.324;2023-02-01T03:22:47;100365.28;;;3.35;81.03
73952;BME280;62304;47.662;18.324;2023-02-01T03:25:53;100360.31;;;3.28;81.20
73952;BME280;62304;47.662;18.324;2023-02-01T03:29:05;100372.06;;;3.20;81.77
73952;BME280;62304;47.662;18.324;2023-02-01T03:32:11;100357.72;;;3.15;81.92
73952;BME280;62304;47.662;18.324;2023-02-01T03:35:14;100364.94;;;3.02;82.27
73952;BME280;62304;47.662;18.324;2023-02-01T03:41:34;100376.53;;;2.99;82.21
73952;BME280;62304;47.662;18.324;2023-02-01T03:44:43;100379.44;;;2.94;82.01
73952;BME280;62304;47.662;18.324;2023-02-01T03:47:54;100377.81;;;2.93;81.87
73952;BME280;62304;47.662;18.324;2023-02-01T03:51:00;100383.09;;;2.81;82.64
73952;BME280;62304;47.662;18.324;2023-02-01T03:54:12;100374.22;;;2.67;82.48
73952;BME280;62304;47.662;18.324;2023-02-01T03:57:21;100366.91;;;2.54;83.38
73952;BME280;62304;47.662;18.324;2023-02-01T04:00:26;100369.97;;;2.53;83.74
73952;BME280;62304;47.662;18.324;2023-02-01T04:03:30;100383.56;;;2.36;84.57
73952;BME280;62304;47.662;18.324;2023-02-01T04:06:33;100386.78;;;2.29;84.39
73952;BME280;62304;47.662;18.324;2023-02-01T04:09:36;100386.88;;;2.16;85.05
73952;BME280;62304;47.662;18.324;2023-02-01T04:12:40;100389.59;;;2.16;85.41
73952;BME280;62304;47.662;18.324;2023-02-01T04:15:43;100387.31;;;2.09;85.26
73952;BME280;62304;47.662;18.324;2023-02-01T04:18:48;100393.69;;;1.96;86.06
73952;BME280;62304;47.662;18.324;2023-02-01T04:21:51;100386.37;;;1.92;86.14
73952;BME280;62304;47.662;18.324;2023-02-01T04:24:54;100398.94;;;2.15;85.74
73952;BME280;62304;47.662;18.324;2023-02-01T04:27:57;100409.25;;;1.96;86.59
73952;BME280;62304;47.662;18.324;2023-02-01T04:31:00;100406.03;;;1.94;85.29
73952;BME280;62304;47.662;18.324;2023-02-01T04:34:03;100412.94;;;1.91;86.50
73952;BME280;62304;47.662;18.324;2023-02-01T04:37:06;100414.44;;;1.97;86.32
73952;BME280;62304;47.662;18.324;2023-02-01T04:40:10;100420.50;;;2.16;86.25
73952;BME280;62304;47.662;18.324;2023-02-01T04:43:13;100415.56;;;2.27;85.63
73952;BME280;62304;47.662;18.324;2023-02-01T04:46:16;100413.87;;;2.39;85.36
73952;BME280;62304;47.662;18.324;2023-02-01T04:49:19;100413.44;;;2.54;84.99
73952;BME280;62304;47.662;18.324;2023-02-01T04:52:24;100413.34;;;2.68;84.69
73952;BME280;62304;47.662;18.324;2023-02-01T04:55:26;100403.88;;;2.82;83.88
73952;BME280;62304;47.662;18.324;2023-02-01T04:58:29;100398.44;;;2.99;83.52
73952;BME280;62304;47.662;18.324;2023-02-01T05:01:32;100404.78;;;3.08;83.10
73952;BME280;62304;47.662;18.324;2023-02-01T05:04:36;100408.34;;;3.09;83.00
73952;BME280;62304;47.662;18.324;2023-02-01T05:07:38;100407.97;;;3.10;82.93
73952;BME280;62304;47.662;18.324;2023-02-01T05:10:41;100397.19;;;3.05;82.97
73952;BME280;62304;47.662;18.324;2023-02-01T05:13:44;100391.88;;;3.00;83.12
73952;BME280;62304;47.662;18.324;2023-02-01T05:16:50;100408.62;;;2.99;83.12
73952;BME280;62304;47.662;18.324;2023-02-01T05:19:53;100410.53;;;2.98;83.13
73952;BME280;62304;47.662;18.324;2023-02-01T05:22:56;100414.56;;;2.92;83.11
73952;BME280;62304;47.662;18.324;2023-02-01T05:26:00;100410.84;;;2.97;82.88
73952;BME280;62304;47.662;18.324;2023-02-01T05:29:04;100414.88;;;2.91;82.96
73952;BME280;62304;47.662;18.324;2023-02-01T05:32:09;100407.75;;;2.81;83.19
73952;BME280;62304;47.662;18.324;2023-02-01T05:35:23;100416.91;;;2.68;83.54
73952;BME280;62304;47.662;18.324;2023-02-01T05:38:26;100403.97;;;2.60;83.85
73952;BME280;62304;47.662;18.324;2023-02-01T05:41:29;100393.16;;;2.55;83.82
73952;BME280;62304;47.662;18.324;2023-02-01T05:44:32;100391.53;;;2.54;84.07
73952;BME280;62304;47.662;18.324;2023-02-01T05:47:36;100405.22;;;2.54;83.93
73952;BME280;62304;47.662;18.324;2023-02-01T05:50:39;100397.81;;;2.46;84.41
73952;BME280;62304;47.662;18.324;2023-02-01T05:53:43;100397.16;;;2.49;84.21
73952;BME280;62304;47.662;18.324;2023-02-01T05:56:46;100384.91;;;2.47;84.38
73952;BME280;62304;47.662;18.324;2023-02-01T05:59:49;100378.78;;;2.41;84.37
73952;BME280;62304;47.662;18.324;2023-02-01T06:02:52;100385.22;;;2.37;84.35
73952;BME280;62304;47.662;18.324;2023-02-01T06:05:55;100396.59;;;2.30;84.40
73952;BME280;62304;47.662;18.324;2023-02-01T06:08:58;100395.28;;;2.28;84.46
73952;BME280;62304;47.662;18.324;2023-02-01T06:12:02;100402.50;;;2.24;84.42
73952;BME280;62304;47.662;18.324;2023-02-01T06:15:06;100395.88;;;2.16;84.65
73952;BME280;62304;47.662;18.324;2023-02-01T06:18:09;100391.66;;;2.10;85.02
73952;BME280;62304;47.662;18.324;2023-02-01T06:21:12;100391.78;;;2.05;85.21
73952;BME280;62304;47.662;18.324;2023-02-01T06:24:17;100395.78;;;1.99;85.40
73952;BME280;62304;47.662;18.324;2023-02-01T06:27:20;100390.94;;;1.96;85.86
73952;BME280;62304;47.662;18.324;2023-02-01T06:30:23;100386.22;;;1.88;86.72
73952;BME280;62304;47.662;18.324;2023-02-01T06:33:26;100397.53;;;1.95;86.63
73952;BME280;62304;47.662;18.324;2023-02-01T06:36:29;100396.78;;;1.81;87.28
73952;BME280;62304;47.662;18.324;2023-02-01T06:39:32;100399.34;;;1.78;87.26
73952;BME280;62304;47.662;18.324;2023-02-01T06:42:35;100415.91;;;1.81;87.16
73952;BME280;62304;47.662;18.324;2023-02-01T06:45:38;100412.25;;;1.64;87.84
73952;BME280;62304;47.662;18.324;2023-02-01T06:48:42;100430.47;;;1.90;87.70
73952;BME280;62304;47.662;18.324;2023-02-01T06:51:45;100428.34;;;2.40;86.23
73952;BME280;62304;47.662;18.324;2023-02-01T06:54:48;100422.88;;;2.79;85.46
73952;BME280;62304;47.662;18.324;2023-02-01T06:57:54;100429.44;;;3.08;84.57
73952;BME280;62304;47.662;18.324;2023-02-01T07:01:03;100425.84;;;2.99;84.16
73952;BME280;62304;47.662;18.324;2023-02-01T07:04:10;100428.31;;;3.18;84.40
73952;BME280;62304;47.662;18.324;2023-02-01T07:07:13;100428.19;;;3.82;82.84
73952;BME280;62304;47.662;18.324;2023-02-01T07:10:17;100424.69;;;4.53;79.28
73952;BME280;62304;47.662;18.324;2023-02-01T07:13:21;100427.72;;;3.97;79.18
73952;BME280;62304;47.662;18.324;2023-02-01T07:16:24;100425.81;;;3.72;81.66
73952;BME280;62304;47.662;18.324;2023-02-01T07:19:28;100428.56;;;3.64;82.08
73952;BME280;62304;47.662;18.324;2023-02-01T07:22:30;100431.28;;;3.55;82.03
73952;BME280;62304;47.662;18.324;2023-02-01T07:25:34;100432.38;;;3.46;82.57
73952;BME280;62304;47.662;18.324;2023-02-01T07:28:37;100419.03;;;3.36;82.56
73952;BME280;62304;47.662;18.324;2023-02-01T07:31:41;100419.97;;;3.40;82.58
73952;BME280;62304;47.662;18.324;2023-02-01T07:34:44;100411.44;;;3.41;82.53
73952;BME280;62304;47.662;18.324;2023-02-01T07:37:47;100413.03;;;3.42;82.47
73952;BME280;62304;47.662;18.324;2023-02-01T07:40:50;100416.59;;;3.51;81.93
73952;BME280;62304;47.662;18.324;2023-02-01T07:43:54;100419.19;;;3.56;81.49
73952;BME280;62304;47.662;18.324;2023-02-01T07:46:57;100436.94;;;3.67;81.74
73952;BME280;62304;47.662;18.324;2023-02-01T07:50:00;100441.91;;;3.82;80.74
73952;BME280;62304;47.662;18.324;2023-02-01T07:53:03;100450.81;;;3.96;79.88
73952;BME280;62304;47.662;18.324;2023-02-01T07:56:15;100464.34;;;4.10;79.43
73952;BME280;62304;47.662;18.324;2023-02-01T07:59:19;100475.62;;;4.25;79.21
73952;BME280;62304;47.662;18.324;2023-02-01T08:02:22;100479.03;;;4.22;79.41
73952;BME280;62304;47.662;18.324;2023-02-01T08:05:26;100479.78;;;4.40;78.97
73952;BME280;62304;47.662;18.324;2023-02-01T08:08:29;100484.97;;;4.41;78.92
73952;BME280;62304;47.662;18.324;2023-02-01T08:11:32;100488.69;;;4.37;79.10
73952;BME280;62304;47.662;18.324;2023-02-01T08:14:35;100487.28;;;4.22;79.80
73952;BME280;62304;47.662;18.324;2023-02-01T08:17:38;100476.12;;;4.19;79.83
73952;BME280;62304;47.662;18.324;2023-02-01T08:20:40;100465.34;;;4.05;80.14
73952;BME280;62304;47.662;18.324;2023-02-01T08:23:46;100471.47;;;3.94;80.18
73952;BME280;62304;47.662;18.324;2023-02-01T08:26:48;100468.88;;;3.89;79.82
73952;BME280;62304;47.662;18.324;2023-02-01T08:29:52;100471.31;;;3.82;79.85
73952;BME280;62304;47.662;18.324;2023-02-01T08:32:57;100463.38;;;3.80;80.30
73952;BME280;62304;47.662;18.324;2023-02-01T08:36:01;100452.72;;;3.87;80.62
73952;BME280;62304;47.662;18.324;2023-02-01T08:39:04;100449.66;;;3.89;80.07
73952;BME280;62304;47.662;18.324;2023-02-01T08:42:11;100448.53;;;3.90;80.47
73952;BME280;62304;47.662;18.324;2023-02-01T08:45:33;100444.19;;;3.89;79.98
73952;BME280;62304;47.662;18.324;2023-02-01T08:48:37;100440.16;;;3.86;80.17
73952;BME280;62304;47.662;18.324;2023-02-01T08:51:40;100428.53;;;3.89;80.79
73952;BME280;62304;47.662;18.324;2023-02-01T08:54:43;100403.03;;;3.97;80.19
73952;BME280;62304;47.662;18.324;2023-02-01T08:57:45;100427.06;;;4.09;80.66
73952;BME280;62304;47.662;18.324;2023-02-01T09:00:49;100427.53;;;4.11;80.88
73952;BME280;62304;47.662;18.324;2023-02-01T09:03:52;100430.44;;;4.14;80.43
73952;BME280;62304;47.662;18.324;2023-02-01T09:06:55;100441.56;;;4.18;80.66
73952;BME280;62304;47.662;18.324;2023-02-01T09:09:58;100442.69;;;4.25;80.76
73952;BME280;62304;47.662;18.324;2023-02-01T09:13:03;100441.38;;;4.31;80.45
73952;BME280;62304;47.662;18.324;2023-02-01T09:16:06;100446.22;;;4.34;80.28
73952;BME280;62304;47.662;18.324;2023-02-01T09:19:09;100448.66;;;4.36;80.07
73952;BME280;62304;47.662;18.324;2023-02-01T09:22:28;100455.44;;;4.38;80.64
73952;BME280;62304;47.662;18.324;2023-02-01T09:25:31;100449.25;;;4.50;80.60
73952;BME280;62304;47.662;18.324;2023-02-01T09:28:34;100450.06;;;4.50;80.67
73952;BME280;62304;47.662;18.324;2023-02-01T09:31:38;100447.16;;;4.55;80.60
73952;BME280;62304;47.662;18.324;2023-02-01T09:34:52;100437.31;;;4.54;81.03
73952;BME280;62304;47.662;18.324;2023-02-01T09:37:55;100433.09;;;4.57;81.04
73952;BME280;62304;47.662;18.324;2023-02-01T09:40:58;100435.50;;;4.58;81.42
73952;BME280;62304;47.662;18.324;2023-02-01T09:44:12;100428.03;;;4.67;81.29
73952;BME280;62304;47.662;18.324;2023-02-01T09:47:22;100414.25;;;4.76;81.53
73952;BME280;62304;47.662;18.324;2023-02-01T09:50:33;100400.47;;;4.84;81.74
73952;BME280;62304;47.662;18.324;2023-02-01T09:53:41;100385.87;;;4.92;82.02
73952;BME280;62304;47.662;18.324;2023-02-01T09:56:53;100390.13;;;4.81;81.89
73952;BME280;62304;47.662;18.324;2023-02-01T10:00:05;100407.72;;;4.89;82.46
73952;BME280;62304;47.662;18.324;2023-02-01T10:03:13;100396.22;;;4.95;82.11
73952;BME280;62304;47.662;18.324;2023-02-01T10:19:39;100378.09;;;5.23;81.74
73952;BME280;62304;47.662;18.324;2023-02-01T10:26:39;100367.16;;;5.35;80.91
73952;BME280;62304;47.662;18.324;2023-02-01T10:29:53;100357.25;;;5.22;80.26
73952;BME280;62304;47.662;18.324;2023-02-01T10:33:14;100349.75;;;5.31;80.60
73952;BME280;62304;47.662;18.324;2023-02-01T10:36:25;100339.75;;;5.27;80.32
73952;BME280;62304;47.662;18.324;2023-02-01T10:39:33;100331.34;;;5.23;80.62
73952;BME280;62304;47.662;18.324;2023-02-01T10:42:35;100321.75;;;5.09;80.64
73952;BME280;62304;47.662;18.324;2023-02-01T10:45:38;100326.25;;;5.13;81.11
73952;BME280;62304;47.662;18.324;2023-02-01T10:48:45;100316.06;;;5.14;81.19
73952;BME280;62304;47.662;18.324;2023-02-01T10:51:57;100310.44;;;5.10;80.86
73952;BME280;62304;47.662;18.324;2023-02-01T10:55:26;100308.84;;;5.09;81.45
73952;BME280;62304;47.662;18.324;2023-02-01T10:58:31;100314.19;;;5.06;81.54
73952;BME280;62304;47.662;18.324;2023-02-01T11:01:39;100302.59;;;5.00;81.72
73952;BME280;62304;47.662;18.324;2023-02-01T11:04:44;100292.75;;;4.99;82.13
73952;BME280;62304;47.662;18.324;2023-02-01T11:07:52;100293.66;;;5.03;82.70
73952;BME280;62304;47.662;18.324;2023-02-01T11:11:02;100293.81;;;5.07;83.03
73952;BME280;62304;47.662;18.324;2023-02-01T11:17:24;100293.94;;;4.90;84.43
73952;BME280;62304;47.662;18.324;2023-02-01T11:23:42;100283.81;;;5.23;82.73
73952;BME280;62304;47.662;18.324;2023-02-01T11:26:46;100283.59;;;5.48;81.53
73952;BME280;62304;47.662;18.324;2023-02-01T11:29:51;100282.81;;;5.60;80.79
73952;BME280;62304;47.662;18.324;2023-02-01T11:32:56;100259.00;;;5.64;81.97
73952;BME280;62304;47.662;18.324;2023-02-01T11:36:10;100273.09;;;5.62;81.91
73952;BME280;62304;47.662;18.324;2023-02-01T11:42:27;100268.28;;;5.59;82.85
73952;BME280;62304;47.662;18.324;2023-02-01T11:45:31;100277.16;;;5.44;83.79
73952;BME280;62304;47.662;18.324;2023-02-01T11:48:37;100265.62;;;5.30;84.66
73952;BME280;62304;47.662;18.324;2023-02-01T11:59:16;100261.63;;;5.07;87.24
73952;BME280;62304;47.662;18.324;2023-02-01T12:12:44;100253.38;;;5.07;88.38
73952;BME280;62304;47.662;18.324;2023-02-01T12:22:31;100220.97;;;5.33;88.02
73952;BME280;62304;47.662;18.324;2023-02-01T12:29:05;100205.47;;;5.61;87.09
73952;BME280;62304;47.662;18.324;2023-02-01T12:39:29;100187.28;;;5.93;86.14
73952;BME280;62304;47.662;18.324;2023-02-01T12:42:39;100185.81;;;5.95;85.70
73952;BME280;62304;47.662;18.324;2023-02-01T12:45:46;100190.16;;;5.96;85.33
73952;BME280;62304;47.662;18.324;2023-02-01T12:52:11;100197.16;;;5.94;84.51
73952;BME280;62304;47.662;18.324;2023-02-01T12:58:37;100181.69;;;6.01;82.69
73952;BME280;62304;47.662;18.324;2023-02-01T13:02:28;100179.25;;;5.88;83.23
73952;BME280;62304;47.662;18.324;2023-02-01T13:05:20;100188.63;;;5.63;84.95
73952;BME280;62304;47.662;18.324;2023-02-01T13:08:26;100186.06;;;5.46;85.76
73952;BME280;62304;47.662;18.324;2023-02-01T13:11:42;100179.25;;;5.31;86.56
73952;BME280;62304;47.662;18.324;2023-02-01T13:14:53;100174.44;;;5.28;86.99
73952;BME280;62304;47.662;18.324;2023-02-01T13:18:00;100168.19;;;5.40;86.53
73952;BME280;62304;47.662;18.324;2023-02-01T13:21:09;100163.34;;;5.81;81.33
73952;BME280;62304;47.662;18.324;2023-02-01T13:24:26;100169.66;;;6.18;77.21
73952;BME280;62304;47.662;18.324;2023-02-01T13:27:31;100172.97;;;6.23;76.24
73952;BME280;62304;47.662;18.324;2023-02-01T13:34:31;100188.75;;;6.50;75.05
73952;BME280;62304;47.662;18.324;2023-02-01T13:44:11;100197.75;;;9.19;65.12
73952;BME280;62304;47.662;18.324;2023-02-01T13:47:34;100196.84;;;7.81;69.28
73952;BME280;62304;47.662;18.324;2023-02-01T13:50:40;100214.94;;;7.35;70.21
73952;BME280;62304;47.662;18.324;2023-02-01T13:53:46;100228.31;;;6.94;71.62
73952;BME280;62304;47.662;18.324;2023-02-01T13:56:50;100232.63;;;6.55;73.17
73952;BME280;62304;47.662;18.324;2023-02-01T14:00:05;100239.84;;;6.48;74.28
73952;BME280;62304;47.662;18.324;2023-02-01T14:03:43;100244.69;;;6.39;75.57
73952;BME280;62304;47.662;18.324;2023-02-01T14:06:46;100246.16;;;6.24;77.12
73952;BME280;62304;47.662;18.324;2023-02-01T14:09:49;100268.88;;;6.21;77.52
73952;BME280;62304;47.662;18.324;2023-02-01T14:13:03;100256.28;;;6.20;77.49
73952;BME280;62304;47.662;18.324;2023-02-01T14:16:16;100264.44;;;6.17;78.09
73952;BME280;62304;47.662;18.324;2023-02-01T14:19:33;100254.06;;;6.14;78.33
73952;BME280;62304;47.662;18.324;2023-02-01T14:22:36;100259.81;;;6.09;78.43
73952;BME280;62304;47.662;18.324;2023-02-01T14:25:39;100263.13;;;6.02;78.62
73952;BME280;62304;47.662;18.324;2023-02-01T14:28:46;100246.16;;;6.00;78.01
73952;BME280;62304;47.662;18.324;2023-02-01T14:32:02;100256.59;;;5.95;77.21
73952;BME280;62304;47.662;18.324;2023-02-01T14:35:23;100234.78;;;5.90;76.31
73952;BME280;62304;47.662;18.324;2023-02-01T14:38:28;100225.94;;;5.84;76.34
73952;BME280;62304;47.662;18.324;2023-02-01T14:41:34;100234.06;;;5.81;75.87
73952;BME280;62304;47.662;18.324;2023-02-01T14:44:37;100231.19;;;5.77;75.97
73952;BME280;62304;47.662;18.324;2023-02-01T14:51:11;100225.88;;;5.72;76.16
73952;BME280;62304;47.662;18.324;2023-02-01T14:54:18;100223.81;;;5.69;76.54
73952;BME280;62304;47.662;18.324;2023-02-01T14:57:25;100223.03;;;5.69;76.46
73952;BME280;62304;47.662;18.324;2023-02-01T15:00:30;100221.75;;;5.66;76.56
73952;BME280;62304;47.662;18.324;2023-02-01T15:07:04;100216.91;;;5.63;76.32
73952;BME280;62304;47.662;18.324;2023-02-01T15:10:09;100208.44;;;5.68;76.36
73952;BME280;62304;47.662;18.324;2023-02-01T15:13:19;100224.63;;;5.70;76.21
73952;BME280;62304;47.662;18.324;2023-02-01T15:16:24;100234.69;;;5.66;76.44
73952;BME280;62304;47.662;18.324;2023-02-01T15:19:29;100234.78;;;5.57;76.57
73952;BME280;62304;47.662;18.324;2023-02-01T15:22:35;100237.50;;;5.45;77.56
73952;BME280;62304;47.662;18.324;2023-02-01T15:25:38;100243.34;;;5.44;77.24
73952;BME280;62304;47.662;18.324;2023-02-01T15:28:41;100246.50;;;5.34;77.91
73952;BME280;62304;47.662;18.324;2023-02-01T15:31:47;100253.97;;;5.33;nan
73952;BME280;62304;47.662;18.324;2023-02-01T15:34:51;100261.41;;;5.33;77.89
73952;BME280;62304;47.662;18.324;2023-02-01T15:41:29;100259.12;;;5.35;78.38
73952;BME280;62304;47.662;18.324;2023-02-01T15:44:38;100261.06;;;5.34;78.39
73952;BME280;62304;47.662;18.324;2023-02-01T15:47:49;100267.50;;;5.38;77.96
73952;BME280;62304;47.662;18.324;2023-02-01T15:50:53;100259.12;;;5.35;78.31
73952;BME280;62304;47.662;18.324;2023-02-01T15:54:16;100270.25;;;5.38;78.36
73952;BME280;62304;47.662;18.324;2023-02-01T15:57:26;100267.63;;;5.42;78.26
73952;BME280;62304;47.662;18.324;2023-02-01T16:00:47;100272.31;;;5.41;78.35
73952;BME280;62304;47.662;18.324;2023-02-01T16:04:24;100273.94;;;5.42;78.69
73952;BME280;62304;47.662;18.324;2023-02-01T16:07:30;100270.97;;;5.47;78.49
73952;BME280;62304;47.662;18.324;2023-02-01T16:10:42;100276.75;;;5.54;78.00
73952;BME280;62304;47.662;18.324;2023-02-01T16:13:45;100285.19;;;5.49;78.15
73952;BME280;62304;47.662;18.324;2023-02-01T16:16:49;100278.88;;;5.49;78.17
73952;BME280;62304;47.662;18.324;2023-02-01T16:19:52;100291.28;;;5.55;77.76
73952;BME280;62304;47.662;18.324;2023-02-01T16:22:56;100294.97;;;5.59;77.51
73952;BME280;62304;47.662;18.324;2023-02-01T16:25:58;100288.00;;;5.61;77.07
73952;BME280;62304;47.662;18.324;2023-02-01T16:29:02;100283.56;;;5.69;76.37
73952;BME280;62304;47.662;18.324;2023-02-01T16:32:20;100287.56;;;5.71;75.83
73952;BME280;62304;47.662;18.324;2023-02-01T16:35:29;100291.47;;;5.70;75.42
73952;BME280;62304;47.662;18.324;2023-02-01T16:38:38;100291.31;;;5.67;75.15
73952;BME280;62304;47.662;18.324;2023-02-01T16:41:41;100292.69;;;5.61;75.35
73952;BME280;62304;47.662;18.324;2023-02-01T16:44:43;100297.59;;;5.55;75.46
73952;BME280;62304;47.662;18.324;2023-02-01T16:47:54;100303.50;;;5.45;75.47
73952;BME280;62304;47.662;18.324;2023-02-01T16:51:03;100306.66;;;5.35;75.69
73952;BME280;62304;47.662;18.324;2023-02-01T16:54:10;100312.56;;;5.25;76.04
73952;BME280;62304;47.662;18.324;2023-02-01T16:57:18;100304.25;;;5.13;76.27
73952;BME280;62304;47.662;18.324;2023-02-01T17:00:22;100305.47;;;5.04;76.44
73952;BME280;62304;47.662;18.324;2023-02-01T17:03:28;100303.59;;;4.96;76.72
73952;BME280;62304;47.662;18.324;2023-02-01T17:06:32;100303.66;;;4.87;76.78
73952;BME280;62304;47.662;18.324;2023-02-01T17:09:37;100304.38;;;4.76;77.04
73952;BME280;62304;47.662;18.324;2023-02-01T17:12:42;100305.56;;;4.66;77.25
73952;BME280;62304;47.662;18.324;2023-02-01T17:15:57;100305.25;;;4.59;77.27
73952;BME280;62304;47.662;18.324;2023-02-01T17:19:15;100303.66;;;4.58;77.03
73952;BME280;62304;47.662;18.324;2023-02-01T17:22:21;100307.72;;;4.52;77.18
73952;BME280;62304;47.662;18.324;2023-02-01T17:25:27;100320.50;;;4.48;77.04
73952;BME280;62304;47.662;18.324;2023-02-01T17:28:32;100322.63;;;4.43;77.41
73952;BME280;62304;47.662;18.324;2023-02-01T17:31:38;100325.37;;;4.43;77.56
73952;BME280;62304;47.662;18.324;2023-02-01T17:34:44;100325.25;;;4.39;77.70
73952;BME280;62304;47.662;18.324;2023-02-01T17:37:54;100322.31;;;4.44;77.62
73952;BME280;62304;47.662;18.324;2023-02-01T17:40:57;100317.44;;;4.50;77.57
73952;BME280;62304;47.662;18.324;2023-02-01T17:44:02;100330.50;;;4.53;77.72
73952;BME280;62304;47.662;18.324;2023-02-01T17:47:07;100325.50;;;4.55;78.00
73952;BME280;62304;47.662;18.324;2023-02-01T17:50:13;100323.69;;;4.59;77.99
73952;BME280;62304;47.662;18.324;2023-02-01T17:53:17;100330.34;;;4.58;78.26
73952;BME280;62304;47.662;18.324;2023-02-01T17:56:24;100328.37;;;4.58;78.22
73952;BME280;62304;47.662;18.324;2023-02-01T17:59:27;100324.16;;;4.61;78.40
73952;BME280;62304;47.662;18.324;2023-02-01T18:02:31;100324.97;;;4.61;78.41
73952;BME280;62304;47.662;18.324;2023-02-01T18:05:38;100326.25;;;4.64;78.51
73952;BME280;62304;47.662;18.324;2023-02-01T18:08:42;100333.03;;;4.66;78.74